Time;durP1;ratioP1;P1;durP2;ratioP2;P2;SDS_P1;SDS_P2;PMS_P1;PMS_P2;Temp;Humidity;BMP_temperature;BMP_pressure;BME280_temperature;BME280_humidity;BME280_pressure;Samples;Min_cycle;Max_cycle;Signal;HPM_P1;HPM_P2
2023/01/30 00:00:51;;;;;;;37.60;21.30;;;;;;;0.81;87.54;99561.75;5115153;28;20066;-72
2023/01/30 00:03:16;;;;;;;30.52;20.10;;;;;;;0.74;87.20;99545.56;5115304;27;20378;-71
2023/01/30 00:05:41;;;;;;;28.58;19.45;;;;;;;0.92;87.74;99563.34;5115285;27;20031;-72
2023/01/30 00:08:07;;;;;;;27.23;18.27;;;;;;;1.02;87.26;99576.09;5114919;28;20024;-72
2023/01/30 00:10:32;;;;;;;28.25;18.60;;;;;;;0.73;87.04;99515.66;5115240;28;20041;-72
2023/01/30 00:12:57;;;;;;;25.38;16.58;;;;;;;0.85;87.13;99525.81;5114849;28;20028;-71
2023/01/30 00:15:22;;;;;;;24.02;16.75;;;;;;;0.84;86.73;99538.63;5114964;28;20045;-72
2023/01/30 00:17:48;;;;;;;27.58;17.42;;;;;;;0.77;87.38;99530.16;5115217;28;20035;-72
2023/01/30 00:20:13;;;;;;;27.35;16.60;;;;;;;0.78;87.89;99531.00;5114684;28;20467;-72
2023/01/30 00:22:38;;;;;;;22.83;14.95;;;;;;;0.77;87.47;99521.63;5114775;28;20078;-72
2023/01/30 00:25:04;;;;;;;24.70;14.57;;;;;;;0.78;87.72;99521.59;5114671;28;20038;-72
2023/01/30 00:27:29;;;;;;;23.38;14.98;;;;;;;0.92;87.48;99531.72;5115110;28;20049;-72
2023/01/30 00:29:55;;;;;;;25.35;15.63;;;;;;;0.89;87.37;99530.06;5114874;28;20080;-72
2023/01/30 00:32:20;;;;;;;29.42;18.70;;;;;;;0.85;87.53;99527.53;5114706;28;20031;-72
2023/01/30 00:34:45;;;;;;;25.58;16.20;;;;;;;0.78;88.03;99520.75;5114015;28;20038;-71
2023/01/30 00:37:11;;;;;;;26.38;17.02;;;;;;;0.71;88.17;99520.78;5114643;28;20030;-72
2023/01/30 00:39:36;;;;;;;25.45;16.08;;;;;;;0.56;88.47;99479.09;5114558;28;20114;-72
2023/01/30 00:47:30;;;;;;;23.73;15.60;;;;;;;0.65;87.07;99487.53;5114561;28;20034;-72
2023/01/30 00:49:55;;;;;;;19.95;14.55;;;;;;;0.57;87.63;99483.34;5114483;28;20023;-72
2023/01/30 00:52:20;;;;;;;25.00;16.55;;;;;;;0.44;87.55;99470.63;5114420;28;20031;-72
2023/01/30 00:54:45;;;;;;;24.75;17.52;;;;;;;0.46;87.81;99480.88;5114362;28;20551;-72
2023/01/30 00:57:11;;;;;;;25.85;18.92;;;;;;;0.39;87.58;99482.66;5114051;27;20436;-72
2023/01/30 00:59:36;;;;;;;29.75;19.05;;;;;;;0.40;87.31;99486.06;5114658;28;20569;-72
2023/01/30 01:02:01;;;;;;;27.67;18.50;;;;;;;0.24;87.49;99459.69;5113833;28;20116;-72
2023/01/30 01:04:27;;;;;;;32.88;19.45;;;;;;;0.45;87.54;99472.31;5114180;28;20115;-72
2023/01/30 01:06:52;;;;;;;29.35;19.30;;;;;;;0.23;86.68;99433.25;5114126;28;20024;-72
2023/01/30 01:09:17;;;;;;;29.60;19.10;;;;;;;0.46;86.01;99455.25;5113582;28;20024;-71
2023/01/30 01:11:43;;;;;;;31.02;19.70;;;;;;;0.41;86.39;99428.81;5113876;28;20027;-72
2023/01/30 01:14:08;;;;;;;31.70;20.85;;;;;;;0.58;85.91;99454.28;5113755;28;20024;-72
2023/01/30 01:16:34;;;;;;;31.98;19.65;;;;;;;0.47;85.13;99433.91;5113931;28;20028;-72
2023/01/30 01:19:00;;;;;;;33.95;20.73;;;;;;;0.62;84.89;99448.28;5113597;28;20032;-72
2023/01/30 01:21:25;;;;;;;32.80;21.13;;;;;;;0.53;84.28;99431.28;5113804;28;20027;-72
2023/01/30 01:23:55;;;;;;;32.75;20.90;;;;;;;0.65;83.50;99430.31;5114031;28;20130;-72
2023/01/30 01:26:20;;;;;;;34.20;22.42;;;;;;;0.54;83.56;99417.59;5113407;28;20479;-71
2023/01/30 01:28:45;;;;;;;32.78;21.10;;;;;;;0.62;83.65;99433.75;5113714;28;20028;-72
2023/01/30 01:31:13;;;;;;;33.67;21.33;;;;;;;0.59;83.39;99426.09;5113491;28;20016;-72
2023/01/30 01:33:38;;;;;;;32.47;21.42;;;;;;;0.43;83.05;99399.78;5113735;28;20029;-71
2023/01/30 01:36:05;;;;;;;29.88;21.85;;;;;;;0.38;83.47;99383.59;5113300;28;20023;-72
2023/01/30 01:38:30;;;;;;;35.47;23.67;;;;;;;0.61;83.57;99403.84;5113289;28;20031;-71
2023/01/30 01:41:02;;;;;;;32.00;21.35;;;;;;;0.65;83.37;99404.69;5113364;28;20042;-72
2023/01/30 01:43:31;;;;;;;34.03;22.55;;;;;;;0.64;82.85;99405.56;5113630;28;20019;-72
2023/01/30 01:46:01;;;;;;;32.03;22.20;;;;;;;0.46;82.81;99373.25;5113177;28;20669;-71
2023/01/30 01:48:30;;;;;;;34.90;23.60;;;;;;;0.66;82.68;99399.53;5113369;28;20462;-72
2023/01/30 01:51:00;;;;;;;32.80;22.40;;;;;;;0.50;82.98;99373.19;5113272;28;20020;-72
2023/01/30 01:53:32;;;;;;;33.10;22.77;;;;;;;0.50;82.71;99362.94;5113177;28;20207;-72
2023/01/30 01:56:01;;;;;;;35.95;23.17;;;;;;;0.66;82.68;99381.59;5113192;28;20413;-72
2023/01/30 01:58:30;;;;;;;34.80;22.20;;;;;;;0.57;82.75;99357.78;5112978;28;20504;-72
2023/01/30 02:00:58;;;;;;;39.05;24.27;;;;;;;0.59;83.18;99348.34;5112976;28;20382;-72
2023/01/30 02:03:26;;;;;;;33.78;23.48;;;;;;;0.72;82.96;99358.47;5112773;28;20055;-72
2023/01/30 02:05:57;;;;;;;32.75;22.23;;;;;;;0.71;82.86;99354.19;5113163;28;20482;-72
2023/01/30 02:08:31;;;;;;;34.50;23.05;;;;;;;0.70;82.94;99352.50;5112763;28;20027;-71
2023/01/30 02:11:09;;;;;;;35.42;22.85;;;;;;;0.72;82.45;99348.22;5112854;28;20110;-72
2023/01/30 02:13:35;;;;;;;31.15;22.05;;;;;;;0.70;82.55;99343.97;5112936;28;20028;-71
2023/01/30 02:16:02;;;;;;;32.55;22.45;;;;;;;0.72;82.49;99335.38;5112811;28;20077;-72
2023/01/30 02:18:30;;;;;;;31.98;20.77;;;;;;;0.69;82.22;99324.31;5112722;28;20035;-72
2023/01/30 02:21:10;;;;;;;31.30;21.92;;;;;;;0.41;82.48;99264.84;5112621;28;20098;-72
2023/01/30 02:23:57;;;;;;;33.95;22.30;;;;;;;0.65;82.10;99297.88;5112750;28;20069;-71
2023/01/30 02:26:47;;;;;;;33.83;21.80;;;;;;;0.48;82.22;99285.25;5112720;28;20107;-72
2023/01/30 02:29:24;;;;;;;41.65;22.63;;;;;;;0.54;82.70;99278.38;5112423;28;20052;-72
2023/01/30 02:32:13;;;;;;;31.35;19.48;;;;;;;0.56;82.47;99276.66;5112662;27;20429;-72
2023/01/30 02:34:47;;;;;;;32.53;21.15;;;;;;;0.36;82.79;99246.97;5112452;28;20031;-72
2023/01/30 02:37:15;;;;;;;36.10;21.77;;;;;;;0.52;83.25;99267.31;5112172;28;20616;-72
2023/01/30 02:39:52;;;;;;;29.67;20.90;;;;;;;0.56;82.84;99271.53;5112553;28;20034;-72
2023/01/30 02:42:29;;;;;;;29.95;19.92;;;;;;;0.38;83.06;99242.69;5112314;28;20030;-72
2023/01/30 02:45:15;;;;;;;30.60;21.52;;;;;;;0.48;83.19;99238.31;5112474;28;20038;-72
2023/01/30 02:47:56;;;;;;;31.20;20.88;;;;;;;0.52;83.01;99245.09;5112237;28;20023;-72
2023/01/30 02:50:24;;;;;;;;;;;;;;;0.50;83.01;99239.13;5112779;28;20147;-72
2023/01/30 02:52:51;;;;;;;31.67;20.48;;;;;;;0.58;82.99;99228.78;5112453;28;19914;-71
2023/01/30 02:55:22;;;;;;;30.38;19.92;;;;;;;0.54;83.16;99216.88;5112179;28;20418;-72
2023/01/30 02:57:48;;;;;;;32.20;21.52;;;;;;;0.58;82.47;99214.25;5113040;28;20505;-72
2023/01/30 03:00:17;;;;;;;29.20;19.70;;;;;;;0.43;83.09;99199.09;5115336;28;20019;-72
2023/01/30 03:03:06;;;;;;;31.17;21.52;;;;;;;0.53;83.42;99225.44;5116590;28;20031;-72
2023/01/30 03:05:59;;;;;;;30.80;21.30;;;;;;;0.53;83.21;99213.47;5116573;28;20366;-72
2023/01/30 03:08:34;;;;;;;30.35;21.80;;;;;;;0.55;83.06;99203.19;5116025;28;20543;-72
2023/01/30 03:11:08;;;;;;;28.45;19.98;;;;;;;0.52;82.86;99201.53;5116379;28;20100;-72
2023/01/30 03:13:42;;;;;;;27.92;20.25;;;;;;;0.58;83.13;99182.66;5116422;28;20483;-72
2023/01/30 03:16:13;;;;;;;30.08;20.08;;;;;;;0.56;83.24;99172.44;5116110;28;20053;-72
2023/01/30 03:18:41;;;;;;;30.52;20.67;;;;;;;0.59;83.58;99161.28;5116167;28;20028;-72
2023/01/30 03:21:07;;;;;;;29.45;21.30;;;;;;;0.57;83.33;99153.63;5116016;28;20375;-71
2023/01/30 03:23:33;;;;;;;27.77;19.33;;;;;;;0.61;82.99;99165.53;5115994;28;20040;-72
2023/01/30 03:26:02;;;;;;;27.42;20.00;;;;;;;0.60;83.39;99152.75;5115961;28;20038;-72
2023/01/30 03:28:28;;;;;;;28.50;19.38;;;;;;;0.62;83.17;99166.34;5115778;27;20035;-72
2023/01/30 03:30:53;;;;;;;29.80;20.20;;;;;;;0.61;82.88;99172.38;5115915;28;20494;-71
2023/01/30 03:33:18;;;;;;;31.73;21.30;;;;;;;0.44;83.16;99147.81;5115605;28;20035;-72
2023/01/30 03:35:44;;;;;;;28.05;20.55;;;;;;;0.46;82.78;99142.66;5115775;28;20085;-72
2023/01/30 03:38:09;;;;;;;29.73;21.65;;;;;;;0.47;83.34;99134.13;5115754;28;20039;-72
2023/01/30 03:40:35;;;;;;;29.55;20.65;;;;;;;0.48;82.63;99118.72;5115872;28;20102;-72
2023/01/30 03:43:00;;;;;;;27.00;19.45;;;;;;;0.68;82.86;99146.63;5115855;28;20035;-72
2023/01/30 03:45:25;;;;;;;27.85;19.33;;;;;;;0.52;82.88;99116.13;5115460;28;20024;-72
2023/01/30 03:47:51;;;;;;;27.33;20.38;;;;;;;0.53;82.83;99117.81;5115427;28;20032;-72
2023/01/30 03:50:16;;;;;;;27.67;19.90;;;;;;;0.56;82.92;99128.88;5115563;28;20092;-72
2023/01/30 03:52:42;;;;;;;29.23;20.13;;;;;;;0.73;82.35;99149.97;5115703;28;20042;-71
2023/01/30 03:55:08;;;;;;;30.27;19.92;;;;;;;0.78;83.12;99151.63;5115625;28;20077;-71
2023/01/30 03:57:33;;;;;;;28.05;18.60;;;;;;;0.61;82.56;99118.53;5115543;28;20028;-72
2023/01/30 03:59:58;;;;;;;26.85;19.15;;;;;;;0.71;82.28;99127.78;5115402;27;20363;-72
2023/01/30 04:02:25;;;;;;;28.67;18.40;;;;;;;0.84;81.64;99116.47;5115363;27;20047;-72
2023/01/30 04:04:50;;;;;;;26.20;17.98;;;;;;;0.87;81.63;99107.88;5115650;28;20124;-72
2023/01/30 04:07:16;;;;;;;24.65;17.58;;;;;;;0.75;81.33;99090.97;5115372;28;20032;-72
2023/01/30 04:09:42;;;;;;;25.25;18.23;;;;;;;0.68;81.43;99044.09;5114040;28;20027;-71
2023/01/30 04:12:07;;;;;;;25.23;18.40;;;;;;;0.68;81.00;99027.88;5115572;28;20084;-72
2023/01/30 04:14:32;;;;;;;24.77;17.65;;;;;;;0.77;81.55;99055.94;5114910;28;20031;-72
2023/01/30 04:16:58;;;;;;;27.00;19.08;;;;;;;0.79;81.14;99061.88;5115337;28;20031;-72
2023/01/30 04:19:23;;;;;;;23.70;17.45;;;;;;;0.79;81.13;99056.72;5115011;28;20084;-71
2023/01/30 04:21:48;;;;;;;22.90;17.77;;;;;;;0.74;81.17;99043.16;5114876;28;20603;-71
2023/01/30 04:24:14;;;;;;;25.75;17.25;;;;;;;0.69;81.73;99043.22;5114524;28;20071;-72
2023/01/30 04:26:39;;;;;;;23.92;18.42;;;;;;;0.72;81.90;99045.75;5114973;28;20466;-72
2023/01/30 04:29:05;;;;;;;25.55;17.83;;;;;;;0.72;81.71;99035.50;5114810;28;20114;-72
2023/01/30 04:31:30;;;;;;;27.35;18.48;;;;;;;0.61;81.39;99003.22;5114508;28;20042;-72
2023/01/30 04:33:56;;;;;;;25.40;17.73;;;;;;;0.63;81.66;99004.91;5112087;28;20036;-72
2023/01/30 04:36:21;;;;;;;23.52;19.13;;;;;;;0.71;81.60;99020.13;5112133;28;20092;-72
2023/01/30 04:38:47;;;;;;;23.05;18.10;;;;;;;0.76;80.91;99018.34;5112200;28;20158;-72
2023/01/30 04:41:12;;;;;;;24.42;18.95;;;;;;;0.69;81.45;99012.47;5111781;28;20023;-72
2023/01/30 04:43:37;;;;;;;26.50;18.45;;;;;;;0.56;80.89;99002.47;5112054;28;20039;-72
2023/01/30 04:46:03;;;;;;;26.17;17.38;;;;;;;0.53;81.70;98984.56;5112007;28;20056;-72
2023/01/30 04:48:28;;;;;;;26.08;18.83;;;;;;;0.50;81.73;98967.53;5111609;28;20092;-72
2023/01/30 04:50:55;;;;;;;22.30;17.15;;;;;;;0.56;81.68;98964.88;5112039;28;20035;-72
2023/01/30 04:53:22;;;;;;;26.40;18.27;;;;;;;0.60;82.00;98966.50;5111563;28;20052;-72
2023/01/30 04:55:48;;;;;;;21.67;16.35;;;;;;;0.55;81.86;98962.31;5111710;28;20031;-72
2023/01/30 04:58:14;;;;;;;25.17;17.65;;;;;;;0.57;81.93;98955.47;5111379;28;20687;-72
2023/01/30 05:00:40;;;;;;;23.13;16.77;;;;;;;0.71;81.95;98968.88;5111389;28;20036;-72
2023/01/30 05:03:06;;;;;;;24.73;17.70;;;;;;;0.69;81.95;98963.78;5111752;28;20431;-72
2023/01/30 05:05:31;;;;;;;24.00;18.00;;;;;;;0.67;81.67;98956.97;5113267;28;20043;-72
2023/01/30 05:07:57;;;;;;;25.35;18.25;;;;;;;0.61;82.27;98939.16;5114068;27;20054;-71
2023/01/30 05:10:22;;;;;;;23.60;17.50;;;;;;;0.70;81.44;98951.81;5113888;28;20530;-71
2023/01/30 05:12:48;;;;;;;25.20;18.60;;;;;;;0.57;81.64;98919.59;5113989;28;20041;-71
2023/01/30 05:15:13;;;;;;;23.00;17.50;;;;;;;0.57;81.56;98920.44;5114231;27;20111;-71
2023/01/30 05:17:39;;;;;;;24.67;18.42;;;;;;;0.52;82.03;98921.41;5113922;28;20034;-71
2023/01/30 05:20:07;;;;;;;26.02;18.20;;;;;;;0.50;82.26;98916.28;5113823;28;20102;-74
2023/01/30 05:22:33;;;;;;;22.42;16.58;;;;;;;0.69;82.50;98921.94;5113216;28;20069;-71
2023/01/30 05:24:58;;;;;;;24.25;17.48;;;;;;;0.66;82.19;98914.28;5113768;28;20492;-71
2023/01/30 05:27:23;;;;;;;22.30;16.73;;;;;;;0.41;82.87;98870.34;5113485;28;20062;-71
2023/01/30 05:29:49;;;;;;;22.58;16.98;;;;;;;0.71;82.51;98915.03;5113255;28;20142;-71
2023/01/30 05:32:16;;;;;;;24.42;16.90;;;;;;;0.61;82.64;98886.19;5114320;28;20065;-71
2023/01/30 05:34:41;;;;;;;23.50;16.77;;;;;;;0.64;82.17;98875.91;5113702;28;20020;-71
2023/01/30 05:37:08;;;;;;;24.10;17.65;;;;;;;0.69;82.85;98888.63;5113395;28;20532;-71
2023/01/30 05:39:33;;;;;;;25.42;17.70;;;;;;;0.58;83.08;98864.91;5113492;28;20034;-71
2023/01/30 05:41:58;;;;;;;25.48;18.65;;;;;;;0.71;83.61;98871.47;5113471;27;20019;-71
2023/01/30 05:44:24;;;;;;;25.23;17.85;;;;;;;0.70;83.62;98875.75;5113181;28;20027;-71
2023/01/30 05:46:49;;;;;;;24.70;18.45;;;;;;;0.72;83.80;98868.91;5113317;28;20552;-71
2023/01/30 05:49:15;;;;;;;26.83;18.75;;;;;;;0.93;83.86;98897.56;5113271;28;20115;-71
2023/01/30 05:51:40;;;;;;;38.33;25.00;;;;;;;0.90;84.16;98887.34;5113075;28;20038;-71
2023/01/30 05:54:05;;;;;;;30.20;22.50;;;;;;;0.85;83.65;98876.34;5113253;28;20039;-71
2023/01/30 05:56:34;;;;;;;25.60;19.40;;;;;;;1.00;83.64;98876.03;5112933;28;20026;-71
2023/01/30 05:59:00;;;;;;;27.20;19.83;;;;;;;0.84;84.35;98843.88;5113108;28;20057;-71
2023/01/30 06:01:27;;;;;;;25.55;18.67;;;;;;;0.86;83.95;98843.00;5112726;28;20031;-71
2023/01/30 06:03:52;;;;;;;22.48;17.83;;;;;;;1.03;84.58;98867.44;5113038;27;20024;-72
2023/01/30 06:06:18;;;;;;;28.15;18.92;;;;;;;1.07;84.32;98869.91;5112842;28;20103;-72
2023/01/30 06:08:44;;;;;;;23.58;17.73;;;;;;;1.08;84.52;98870.75;5112949;28;20120;-72
2023/01/30 06:11:15;;;;;;;23.33;18.10;;;;;;;1.09;84.53;98878.41;5112920;28;20081;-72
2023/01/30 06:13:41;;;;;;;26.85;19.50;;;;;;;0.96;85.05;98856.47;5112532;28;20034;-72
2023/01/30 06:16:08;;;;;;;26.42;18.27;;;;;;;1.15;84.92;98864.63;5112946;28;20032;-72
2023/01/30 06:18:33;;;;;;;26.55;20.27;;;;;;;1.16;84.65;98856.06;5112648;28;20042;-72
2023/01/30 06:20:59;;;;;;;28.33;20.27;;;;;;;1.18;85.49;98859.41;5112777;28;20027;-72
2023/01/30 06:23:24;;;;;;;28.05;19.88;;;;;;;0.99;85.80;98823.91;5112607;28;20051;-72
2023/01/30 06:25:51;;;;;;;28.17;20.17;;;;;;;1.03;86.71;98811.03;5112570;28;20027;-72
2023/01/30 06:28:19;;;;;;;26.92;19.75;;;;;;;1.02;87.15;98814.47;5112607;28;20039;-72
2023/01/30 06:30:45;;;;;;;24.90;18.45;;;;;;;0.99;87.87;98807.69;5112911;28;20030;-72
2023/01/30 06:33:10;;;;;;;23.63;18.27;;;;;;;1.07;88.99;98815.22;5111983;28;20019;-81
2023/01/30 06:35:37;;;;;;;26.52;18.48;;;;;;;1.11;89.82;98814.28;5112354;28;20112;-81
2023/01/30 06:38:03;;;;;;;25.80;19.05;;;;;;;1.15;89.72;98824.44;5112793;28;20024;-80
2023/01/30 06:40:28;;;;;;;27.13;18.90;;;;;;;1.16;90.05;98818.41;5112233;28;20085;-81
2023/01/30 06:42:53;;;;;;;25.65;18.75;;;;;;;1.07;90.86;98800.66;5112326;28;20062;-81
2023/01/30 06:45:19;;;;;;;25.15;18.80;;;;;;;1.16;91.10;98820.97;5112370;28;20032;-81
2023/01/30 06:47:52;;;;;;;26.05;18.52;;;;;;;0.95;92.33;98791.53;5112385;28;20544;-81
2023/01/30 06:50:20;;;;;;;26.55;19.27;;;;;;;1.04;92.53;98802.47;5112605;28;20023;-75
2023/01/30 06:52:46;;;;;;;34.75;23.92;;;;;;;1.15;92.80;98813.34;5112195;28;20030;-75
2023/01/30 06:55:14;;;;;;;39.42;27.05;;;;;;;1.18;93.57;98808.97;5112240;28;20525;-75
2023/01/30 06:57:40;;;;;;;34.13;20.90;;;;;;;0.47;95.44;98819.00;5111920;28;20054;-75
2023/01/30 07:00:09;;;;;;;34.42;21.75;;;;;;;0.01;98.02;98801.06;5112395;28;20084;-75
2023/01/30 07:02:35;;;;;;;37.10;24.15;;;;;;;-0.32;99.28;98782.88;5111967;28;20020;-75
2023/01/30 07:05:01;;;;;;;34.55;22.38;;;;;;;-0.32;99.65;98822.09;5112328;28;20487;-75
2023/01/30 07:07:27;;;;;;;39.80;23.02;;;;;;;-0.53;100.00;98804.50;5111953;28;20028;-75
2023/01/30 07:09:52;;;;;;;41.75;28.67;;;;;;;-0.68;100.00;98789.38;5112053;28;20046;-75
2023/01/30 07:12:19;;;;;;;38.60;25.70;;;;;;;-0.57;100.00;98816.50;5112035;28;20098;-75
2023/01/30 07:14:44;;;;;;;40.97;26.88;;;;;;;-0.73;100.00;98791.19;5112010;28;20027;-75
2023/01/30 07:17:09;;;;;;;59.60;34.53;;;;;;;-0.69;100.00;98798.78;5112411;28;20028;-75
2023/01/30 07:19:34;;;;;;;40.40;25.88;;;;;;;-0.62;100.00;98805.50;5111910;28;20145;-75
2023/01/30 07:22:00;;;;;;;39.22;25.65;;;;;;;-0.77;100.00;98788.66;5112002;28;20145;-75
2023/01/30 07:24:25;;;;;;;42.80;25.65;;;;;;;-0.74;100.00;98787.78;5111613;28;20051;-75
2023/01/30 07:26:50;;;;;;;43.17;27.23;;;;;;;-0.84;100.00;98776.00;5111875;28;20034;-75
2023/01/30 07:29:16;;;;;;;42.05;27.35;;;;;;;-0.36;100.00;98791.47;5112195;28;20395;-75
2023/01/30 07:31:41;;;;;;;38.60;25.23;;;;;;;-0.43;100.00;98789.84;5111729;28;20024;-75
2023/01/30 07:34:06;;;;;;;42.50;29.08;;;;;;;-0.49;100.00;98784.84;5111978;28;20036;-75
2023/01/30 07:36:33;;;;;;;37.22;25.05;;;;;;;-0.59;100.00;98782.44;5112032;28;20404;-74
2023/01/30 07:39:00;;;;;;;44.55;28.48;;;;;;;-0.71;100.00;98761.34;5111822;28;20038;-74
2023/01/30 07:41:26;;;;;;;42.05;27.13;;;;;;;-0.70;100.00;98774.09;5111535;28;20024;-74
2023/01/30 07:43:51;;;;;;;44.28;28.48;;;;;;;-0.86;100.00;98750.44;5112766;28;20115;-75
2023/01/30 07:46:17;;;;;;;39.40;25.77;;;;;;;-0.69;100.00;98775.75;5115907;28;20099;-74
2023/01/30 07:48:44;;;;;;;40.47;25.23;;;;;;;-0.77;100.00;98763.09;5115479;28;20023;-74
2023/01/30 07:51:09;;;;;;;42.38;25.40;;;;;;;-0.60;100.00;98734.69;5115831;28;20038;-75
2023/01/30 07:53:35;;;;;;;48.03;29.15;;;;;;;-0.58;100.00;98752.59;5115235;28;20023;-74
2023/01/30 07:56:08;;;;;;;45.10;28.80;;;;;;;-0.52;100.00;98780.63;5115415;28;20055;-74
2023/01/30 07:58:34;;;;;;;39.90;25.20;;;;;;;-0.65;100.00;98759.50;5115381;28;20383;-74
2023/01/30 08:00:59;;;;;;;39.90;26.08;;;;;;;-0.66;100.00;98762.09;5115345;28;20019;-74
2023/01/30 08:03:25;;;;;;;48.00;28.35;;;;;;;-0.76;100.00;98739.25;5115225;28;20076;-74
2023/01/30 08:05:51;;;;;;;44.25;27.58;;;;;;;-0.81;100.00;98733.31;5115270;28;20399;-74
2023/01/30 08:08:17;;;;;;;47.58;29.90;;;;;;;-0.66;100.00;98751.88;5115118;28;20024;-74
2023/01/30 08:10:42;;;;;;;60.38;34.25;;;;;;;-0.65;100.00;98744.16;5115371;28;20028;-74
2023/01/30 08:13:07;;;;;;;58.88;32.58;;;;;;;-0.55;100.00;98763.63;5115317;28;20058;-74
2023/01/30 08:15:33;;;;;;;58.17;32.60;;;;;;;-0.59;100.00;98756.88;5114874;28;20028;-74
2023/01/30 08:17:58;;;;;;;56.92;34.25;;;;;;;-0.46;100.00;98749.84;5115066;28;20028;-74
2023/01/30 08:20:25;;;;;;;54.45;34.97;;;;;;;-0.14;100.00;98744.16;5114985;28;20062;-74
2023/01/30 08:22:51;;;;;;;59.80;34.65;;;;;;;-0.19;100.00;98738.28;5114817;28;20044;-74
2023/01/30 08:25:16;;;;;;;50.97;31.45;;;;;;;-0.38;100.00;98719.00;5115172;28;20371;-74
2023/01/30 08:27:42;;;;;;;54.95;30.90;;;;;;;-0.35;100.00;98719.78;5114808;28;20471;-74
2023/01/30 08:30:09;;;;;;;46.92;29.08;;;;;;;-0.29;100.00;98723.97;5114879;28;20055;-74
2023/01/30 08:32:34;;;;;;;47.70;29.85;;;;;;;-0.31;100.00;98728.25;5114581;28;20047;-74
2023/01/30 08:34:59;;;;;;;45.63;28.65;;;;;;;-0.45;100.00;98696.97;5115080;28;20482;-74
2023/01/30 08:37:24;;;;;;;54.97;31.92;;;;;;;-0.47;100.00;98691.84;5114663;28;20035;-74
2023/01/30 08:39:50;;;;;;;54.20;32.30;;;;;;;-0.33;100.00;98723.19;5114656;27;20369;-74
2023/01/30 08:42:15;;;;;;;55.47;31.92;;;;;;;0.07;100.00;98724.16;5114642;28;20038;-74
2023/01/30 08:44:40;;;;;;;53.28;32.90;;;;;;;-0.06;100.00;98692.81;5114494;28;20038;-74
2023/01/30 08:47:06;;;;;;;48.78;29.30;;;;;;;-0.14;100.00;98684.44;5114592;28;20054;-74
2023/01/30 08:49:31;;;;;;;50.00;29.42;;;;;;;-0.14;100.00;98692.97;5114348;28;20032;-74
2023/01/30 08:51:56;;;;;;;35.03;22.48;;;;;;;-0.10;100.00;98686.91;5114369;27;20463;-74
2023/01/30 08:54:22;;;;;;;29.35;17.85;;;;;;;-0.15;100.00;98657.19;5114451;27;20080;-74
2023/01/30 08:56:47;;;;;;;31.38;20.27;;;;;;;0.10;100.00;98681.41;5113571;28;20584;-74
2023/01/30 08:59:12;;;;;;;26.65;17.23;;;;;;;0.23;100.00;98692.25;5114439;28;20137;-74
2023/01/30 09:01:38;;;;;;;27.35;18.08;;;;;;;0.39;100.00;98685.09;5112596;28;20382;-74
2023/01/30 09:04:04;;;;;;;24.70;16.25;;;;;;;0.58;100.00;98690.66;5113562;28;20038;-74
2023/01/30 09:06:29;;;;;;;25.40;16.83;;;;;;;0.50;100.00;98686.53;5113903;28;20034;-74
2023/01/30 09:08:54;;;;;;;21.23;14.20;;;;;;;0.31;100.00;98646.00;5113992;28;20124;-74
2023/01/30 09:11:20;;;;;;;22.58;15.25;;;;;;;0.37;100.00;98659.50;5113981;28;20050;-74
2023/01/30 09:13:45;;;;;;;24.38;17.42;;;;;;;0.40;100.00;98667.13;5113758;28;20043;-74
2023/01/30 09:16:11;;;;;;;21.27;14.90;;;;;;;0.62;100.00;98653.84;5114062;28;20111;-74
2023/01/30 09:18:41;;;;;;;26.25;17.58;;;;;;;0.84;100.00;98677.25;5113945;28;20024;-74
2023/01/30 09:21:08;;;;;;;26.92;17.05;;;;;;;0.65;100.00;98654.63;5113844;28;20031;-74
2023/01/30 09:23:34;;;;;;;18.85;13.98;;;;;;;0.70;100.00;98663.03;5112612;28;20047;-76
2023/01/30 09:26:01;;;;;;;19.23;13.18;;;;;;;0.78;100.00;98675.69;5113131;28;20031;-76
2023/01/30 09:28:26;;;;;;;24.80;16.25;;;;;;;0.76;100.00;98672.34;5109388;28;20236;-75
2023/01/30 09:30:51;;;;;;;20.35;14.23;;;;;;;0.75;100.00;98671.47;5112571;28;20546;-75
2023/01/30 09:33:19;;;;;;;21.90;13.02;;;;;;;0.64;100.00;98647.81;5112357;28;20031;-76
2023/01/30 09:35:48;;;;;;;28.08;17.25;;;;;;;0.82;100.00;98636.31;5109348;28;20050;-75
2023/01/30 09:38:14;;;;;;;19.90;14.98;;;;;;;1.12;100.00;98667.22;5112469;28;20030;-75
2023/01/30 09:40:47;;;;;;;18.52;14.30;;;;;;;1.01;100.00;98664.88;5113348;28;20152;-75
2023/01/30 09:43:40;;;;;;;17.00;12.27;;;;;;;0.96;100.00;98647.06;5113749;28;20080;-75
2023/01/30 09:46:21;;;;;;;18.10;12.85;;;;;;;1.28;100.00;98655.69;5050125;28;20250;-75
2023/01/30 09:49:08;;;;;;;20.80;13.48;;;;;;;1.11;100.00;98653.56;5049979;28;20037;-75
2023/01/30 09:51:42;;;;;;;25.73;17.58;;;;;;;0.95;100.00;98639.41;5049921;28;20033;-75
2023/01/30 09:54:24;;;;;;;23.88;16.40;;;;;;;0.97;100.00;98651.34;5050211;28;20131;-75
2023/01/30 09:57:00;;;;;;;22.63;17.02;;;;;;;0.77;100.00;98624.47;5049833;28;20045;-75
2023/01/30 09:59:34;;;;;;;32.80;25.38;;;;;;;0.97;100.00;98620.56;5050140;28;20033;-75
2023/01/30 10:02:08;;;;;;;19.73;14.45;;;;;;;1.12;100.00;98641.56;5050018;28;20032;-75
2023/01/30 10:04:43;;;;;;;21.00;15.40;;;;;;;0.84;100.00;98621.72;5050118;28;20033;-75
2023/01/30 10:07:09;;;;;;;16.83;12.30;;;;;;;0.87;100.00;98637.03;5050013;28;20108;-75
2023/01/30 10:09:46;;;;;;;17.60;12.55;;;;;;;0.87;100.00;98613.97;5049711;28;20171;-75
2023/01/30 10:12:32;;;;;;;22.70;15.20;;;;;;;1.14;100.00;98622.72;5050058;28;20036;-75
2023/01/30 10:15:00;;;;;;;19.48;12.88;;;;;;;1.05;100.00;98632.34;5049876;28;20082;-75
2023/01/30 10:17:49;;;;;;;18.70;13.63;;;;;;;0.81;100.00;98592.78;5049727;28;20041;-75
2023/01/30 10:20:31;;;;;;;18.88;14.40;;;;;;;1.00;100.00;98619.63;5049829;28;20090;-75
2023/01/30 10:23:09;;;;;;;16.85;12.18;;;;;;;1.24;100.00;98602.78;5065891;28;20047;-75
2023/01/30 10:25:44;;;;;;;20.30;15.00;;;;;;;1.03;100.00;98578.53;5092455;28;20023;-75
2023/01/30 10:28:23;;;;;;;56.15;36.55;;;;;;;1.06;100.00;98593.00;5092250;28;20086;-75
2023/01/30 10:30:53;;;;;;;26.10;17.25;;;;;;;1.07;100.00;98589.56;5092202;28;20023;-76
2023/01/30 10:33:29;;;;;;;17.98;12.98;;;;;;;1.38;100.00;98594.72;5092351;28;20020;-75
2023/01/30 10:36:22;;;;;;;18.95;14.25;;;;;;;1.28;100.00;98603.56;5091960;28;20036;-75
2023/01/30 10:38:49;;;;;;;37.03;24.98;;;;;;;1.14;100.00;98607.31;5092119;28;20043;-75
2023/01/30 10:41:35;;;;;;;25.23;18.42;;;;;;;1.05;100.00;98586.19;5092188;28;20387;-75
2023/01/30 10:44:08;;;;;;;26.05;18.45;;;;;;;1.38;100.00;98590.44;5092419;28;20032;-75
2023/01/30 10:46:57;;;;;;;29.67;22.90;;;;;;;1.35;100.00;98595.66;5091868;28;20530;-75
2023/01/30 10:49:46;;;;;;;22.38;16.65;;;;;;;1.09;100.00;98546.75;5092090;28;20103;-75
2023/01/30 10:52:41;;;;;;;22.85;15.88;;;;;;;1.17;100.00;98586.72;5091974;28;20020;-75
2023/01/30 10:56:02;;;;;;;35.97;26.85;;;;;;;1.17;100.00;98549.97;5091894;28;20089;-75
2023/01/30 10:58:30;;;;;;;40.10;28.70;;;;;;;1.43;100.00;98583.47;5029542;28;20111;-75
2023/01/30 11:00:58;;;;;;;34.10;23.35;;;;;;;1.31;100.00;98570.97;5029067;28;20536;-75
2023/01/30 11:03:39;;;;;;;23.20;15.88;;;;;;;1.30;100.00;98566.72;5029233;28;20026;-75
2023/01/30 11:06:12;;;;;;;19.77;14.90;;;;;;;1.58;100.00;98555.72;5029303;28;20132;-75
2023/01/30 11:08:37;;;;;;;25.48;19.13;;;;;;;1.41;100.00;98543.34;5028966;28;20381;-75
2023/01/30 11:11:49;;;;;;;23.17;17.92;;;;;;;1.36;100.00;98551.16;5029281;28;20068;-75
2023/01/30 11:14:15;;;;;;;18.52;14.02;;;;;;;1.17;100.00;98521.75;4970576;28;20082;-75
2023/01/30 11:16:53;;;;;;;15.57;12.60;;;;;;;1.55;100.00;98537.81;4970284;28;20129;-75
2023/01/30 11:19:29;;;;;;;14.80;11.60;;;;;;;1.36;100.00;98512.69;4971997;28;20053;-75
2023/01/30 11:22:00;;;;;;;18.48;13.20;;;;;;;1.40;100.00;98542.50;4974172;28;20192;-76
2023/01/30 11:24:30;;;;;;;14.43;11.70;;;;;;;1.24;100.00;98511.28;4974237;28;20121;-76
2023/01/30 11:27:08;;;;;;;16.15;12.30;;;;;;;1.36;100.00;98534.94;4974094;28;20094;-75
2023/01/30 11:29:37;;;;;;;17.30;12.80;;;;;;;1.21;100.00;98506.25;4974033;28;20039;-75
2023/01/30 11:32:09;;;;;;;16.95;13.32;;;;;;;1.45;100.00;98515.00;4993514;28;20127;-75
2023/01/30 11:34:34;;;;;;;22.02;15.25;;;;;;;1.78;100.00;98524.34;5032676;28;20125;-76